Reading, Pennsylvania
Current Conditions -  °F | °C
As of 6:54 PM on Thursday 18 Dec 2014 (Local Time) from KRDG Reporting Station
Overcast Overcast  
Wind Chill: 28°   Ceiling: 3000
Heat Index: 36°   Visibility: 10mi
Dew Point: 25°   Wind: 10mph
Humidity: 64%   Direction: 290°WNW
Pressure: 30.03"   Gusts: NA
Location:  40.34°N, 75.93°W
Report Text: KRDG 182354Z 29009KT 10SM OVC030 02/M04 A3003 RMK AO2 SLP178 T00221039 10028 20011 53001
Loading
Personal Weather Stations






























Interactive Weather Map New forecast layout! Learn more

10-Day Weather Forecast

Advertisements
Track Severe Weather on mobile